createdAt,value
2019-03-06T00:03:31.800Z,12.10
2019-03-06T00:08:33.738Z,11.03
2019-03-06T00:13:35.761Z,13.50
2019-03-06T00:18:37.731Z,13.53
2019-03-06T00:23:39.888Z,13.17
2019-03-06T00:28:41.995Z,13.10
2019-03-06T00:33:43.988Z,15.73
2019-03-06T00:38:45.861Z,14.60
2019-03-06T00:43:47.772Z,11.40
2019-03-06T00:48:50.617Z,12.23
2019-03-06T00:53:52.556Z,14.87
2019-03-06T00:58:54.768Z,10.77
2019-03-06T01:03:56.781Z,14.70
2019-03-06T01:08:58.740Z,14.40
2019-03-06T01:14:00.743Z,12.30
2019-03-06T01:19:02.740Z,13.63
2019-03-06T01:24:04.697Z,13.10
2019-03-06T01:29:07.364Z,12.23
2019-03-06T01:34:29.345Z,11.10
2019-03-06T01:39:51.497Z,12.23
2019-03-06T01:44:59.395Z,11.13
2019-03-06T01:50:01.293Z,10.97
2019-03-06T01:55:03.780Z,14.40
2019-03-06T02:00:08.004Z,13.67
2019-03-06T02:05:10.568Z,15.87
2019-03-06T02:10:13.152Z,14.30
2019-03-06T02:15:15.623Z,13.27
2019-03-06T02:20:17.612Z,13.80
2019-03-06T02:25:19.495Z,14.77
2019-03-06T02:30:21.587Z,14.90
2019-03-06T02:35:24.400Z,18.87
2019-03-06T02:40:26.893Z,16.00
2019-03-06T02:45:29.131Z,14.73
2019-03-06T02:50:31.565Z,22.63
2019-03-06T02:55:33.889Z,15.70
2019-03-06T03:00:50.072Z,17.23
2019-03-06T03:05:59.602Z,16.97
2019-03-06T03:11:02.412Z,18.23
2019-03-06T03:16:04.485Z,15.23
2019-03-06T03:21:06.401Z,17.83
2019-03-06T03:26:08.673Z,21.97
2019-03-06T03:31:10.730Z,17.47
2019-03-06T03:36:12.711Z,18.83
2019-03-06T03:41:14.559Z,19.30
2019-03-06T03:46:17.034Z,23.97
2019-03-06T03:51:19.568Z,22.40
2019-03-06T03:56:22.702Z,22.20
2019-03-06T04:01:24.705Z,18.10
2019-03-06T04:06:26.767Z,21.00
2019-03-06T04:11:30.068Z,20.63
2019-03-06T04:16:32.170Z,21.53
2019-03-06T04:21:34.754Z,20.87
2019-03-06T04:26:37.270Z,23.27
2019-03-06T04:31:39.201Z,17.87
2019-03-06T04:36:41.129Z,23.27
2019-03-06T04:41:43.272Z,21.10
2019-03-06T04:46:45.192Z,18.93
2019-03-06T04:51:48.111Z,24.43
2019-03-06T04:56:50.462Z,20.57
2019-03-06T05:01:53.058Z,20.80
2019-03-06T05:06:55.230Z,24.87
2019-03-06T05:11:57.941Z,20.13
2019-03-06T05:17:13.977Z,28.13
2019-03-06T05:22:16.540Z,21.83
2019-03-06T05:27:18.448Z,23.03
2019-03-06T05:32:31.317Z,24.07
2019-03-06T05:38:09.266Z,21.93
2019-03-06T05:43:11.831Z,23.37
2019-03-06T05:48:14.136Z,20.70
2019-03-06T05:53:16.066Z,19.57
2019-03-06T05:58:18.708Z,20.27
2019-03-06T06:03:21.425Z,23.00
2019-03-06T06:08:24.671Z,18.50
2019-03-06T06:13:26.561Z,23.83
2019-03-06T06:18:28.502Z,19.63
2019-03-06T06:23:46.740Z,22.13
2019-03-06T06:28:49.141Z,21.10
2019-03-06T06:33:51.069Z,18.30
2019-03-06T06:38:53.297Z,21.70
2019-03-06T06:43:55.201Z,26.37
2019-03-06T06:48:57.452Z,21.77
2019-03-06T06:54:08.644Z,19.30
2019-03-06T06:59:54.564Z,19.70
2019-03-06T07:05:21.964Z,17.90
2019-03-06T07:10:40.047Z,26.57
2019-03-06T07:16:10.704Z,23.20
2019-03-06T07:21:23.884Z,24.63
2019-03-06T07:26:36.748Z,27.60
2019-03-06T07:31:58.604Z,26.47
2019-03-06T07:37:09.985Z,23.10
2019-03-06T07:42:35.207Z,19.27
2019-03-06T07:47:44.770Z,16.30
2019-03-06T07:53:42.993Z,23.00
2019-03-06T07:58:50.478Z,16.83
2019-03-06T08:04:07.383Z,16.50
2019-03-06T08:09:14.568Z,17.53
2019-03-06T08:14:34.676Z,16.57
2019-03-06T08:19:51.337Z,16.63
2019-03-06T08:25:15.589Z,13.50
2019-03-06T08:30:17.765Z,13.60
2019-03-06T08:35:20.288Z,14.83
2019-03-06T08:40:22.124Z,14.33
2019-03-06T08:45:26.777Z,12.40
2019-03-06T08:51:06.671Z,13.53
2019-03-06T08:56:37.326Z,12.23
2019-03-06T09:01:46.836Z,11.07
2019-03-06T09:06:57.568Z,12.00
2019-03-06T09:12:15.756Z,14.43
2019-03-06T09:17:30.661Z,14.70
2019-03-06T09:22:42.242Z,18.30
2019-03-06T09:28:20.667Z,10.57
2019-03-06T09:33:34.561Z,10.80
2019-03-06T09:38:42.927Z,11.17
2019-03-06T09:43:53.821Z,9.97
2019-03-06T09:49:10.839Z,12.70
2019-03-06T09:54:23.753Z,10.27
2019-03-06T09:59:51.252Z,10.50
2019-03-06T10:05:01.340Z,9.77
2019-03-06T10:10:23.518Z,9.93
2019-03-06T10:15:41.297Z,12.17
2019-03-06T10:20:52.029Z,11.23
2019-03-06T10:25:54.156Z,7.67
2019-03-06T10:31:02.501Z,11.73
2019-03-06T10:36:00.733Z,9.07
2019-03-06T10:41:03.469Z,10.07
2019-03-06T10:46:05.933Z,9.63
2019-03-06T10:51:08.412Z,9.00
2019-03-06T10:56:10.805Z,8.50
2019-03-06T11:01:13.108Z,7.67
2019-03-06T11:06:16.228Z,8.20
2019-03-06T11:11:18.389Z,7.97
2019-03-06T11:16:20.880Z,8.87
2019-03-06T11:21:23.364Z,8.80
2019-03-06T11:26:25.877Z,9.67
2019-03-06T11:31:28.245Z,7.23
2019-03-06T11:36:30.264Z,8.07
2019-03-06T11:41:32.920Z,7.40
2019-03-06T11:46:34.972Z,9.17
2019-03-06T11:51:36.871Z,7.37
2019-03-06T11:56:39.687Z,7.13
2019-03-06T12:01:47.870Z,8.73
2019-03-06T12:06:47.365Z,6.60
2019-03-06T12:11:49.816Z,8.83
2019-03-06T12:16:52.920Z,9.03
2019-03-06T12:21:55.924Z,6.83
2019-03-06T12:26:57.841Z,7.80
2019-03-06T12:32:00.055Z,6.13
2019-03-06T12:37:02.253Z,6.73
2019-03-06T12:42:13.776Z,5.87
2019-03-06T12:47:10.865Z,8.60
2019-03-06T12:52:12.548Z,6.60
2019-03-06T12:57:14.796Z,6.47
2019-03-06T13:02:16.986Z,5.47
2019-03-06T13:07:19.010Z,7.30
2019-03-06T13:12:21.268Z,5.43
2019-03-06T13:17:24.048Z,7.47
2019-03-06T13:22:26.455Z,6.17
2019-03-06T13:27:28.608Z,5.20
2019-03-06T13:32:44.842Z,8.17
2019-03-06T13:37:46.899Z,5.70
2019-03-06T13:42:49.230Z,6.73
2019-03-06T13:47:52.104Z,5.77
2019-03-06T13:52:55.225Z,5.40
2019-03-06T13:57:57.428Z,5.33
2019-03-06T14:02:59.744Z,5.20
2019-03-06T14:08:02.156Z,5.03
2019-03-06T14:13:04.323Z,5.33
2019-03-06T14:18:08.345Z,7.43
2019-03-06T14:23:10.904Z,4.33
2019-03-06T14:28:15.862Z,5.07
2019-03-06T14:33:18.073Z,3.33
2019-03-06T14:38:20.788Z,3.63
2019-03-06T14:43:23.292Z,4.20
2019-03-06T14:48:25.324Z,4.87
2019-03-06T14:53:27.372Z,5.77
2019-03-06T14:58:29.876Z,6.03
2019-03-06T15:03:32.181Z,4.83
2019-03-06T15:08:34.440Z,8.67
2019-03-06T15:13:36.945Z,6.67
2019-03-06T15:18:39.141Z,6.40
2019-03-06T15:23:41.368Z,6.83
2019-03-06T15:28:43.615Z,5.43
2019-03-06T15:33:45.620Z,5.63
2019-03-06T15:38:47.832Z,8.40
2019-03-06T15:43:49.968Z,5.97
2019-03-06T15:48:52.027Z,7.20
2019-03-06T15:53:54.470Z,6.37
2019-03-06T15:58:56.475Z,7.60
2019-03-06T16:03:58.516Z,8.40
2019-03-06T16:09:00.724Z,6.63
2019-03-06T16:14:02.874Z,7.40
2019-03-06T16:19:05.177Z,5.83
2019-03-06T16:24:07.153Z,6.43
2019-03-06T16:29:10.179Z,9.57
2019-03-06T16:34:12.188Z,7.93
2019-03-06T16:39:14.165Z,12.07
2019-03-06T16:44:17.368Z,8.90
2019-03-06T16:49:20.082Z,8.37
2019-03-06T16:54:22.340Z,10.47
2019-03-06T16:59:24.863Z,9.97
2019-03-06T17:04:26.781Z,11.80
2019-03-06T17:09:28.877Z,8.67
2019-03-06T17:14:31.689Z,9.43
2019-03-06T17:19:33.824Z,9.93
2019-03-06T17:24:36.009Z,10.17
2019-03-06T17:29:38.053Z,12.40
2019-03-06T17:34:40.448Z,11.83
2019-03-06T17:39:42.387Z,10.47
2019-03-06T17:44:45.524Z,12.83
2019-03-06T17:49:48.419Z,14.80
2019-03-06T17:54:50.218Z,10.60
2019-03-06T17:59:52.206Z,10.93
2019-03-06T18:04:54.353Z,12.60
2019-03-06T18:09:57.375Z,11.73
2019-03-06T18:14:59.332Z,16.83
2019-03-06T18:20:01.425Z,10.87
2019-03-06T18:25:04.852Z,11.67
2019-03-06T18:30:08.961Z,9.37
2019-03-06T18:35:11.645Z,11.53
2019-03-06T18:40:15.192Z,9.90
2019-03-06T18:45:17.665Z,12.13
2019-03-06T18:50:19.866Z,9.33
2019-03-06T18:55:22.045Z,8.97
2019-03-06T19:00:24.560Z,10.57
2019-03-06T19:05:27.153Z,7.53
2019-03-06T19:10:29.747Z,10.03
2019-03-06T19:15:31.759Z,8.20
2019-03-06T19:20:34.235Z,9.70
2019-03-06T19:25:37.125Z,10.77
2019-03-06T19:30:39.508Z,7.80
2019-03-06T19:35:41.821Z,9.23
2019-03-06T19:40:44.164Z,8.10
2019-03-06T19:45:46.315Z,6.67
2019-03-06T19:50:48.873Z,7.07
2019-03-06T19:55:51.271Z,6.87
2019-03-06T20:00:53.719Z,9.93
2019-03-06T20:05:55.954Z,8.97
2019-03-06T20:10:58.564Z,7.40
2019-03-06T20:16:01.117Z,9.17
2019-03-06T20:21:03.113Z,8.23
2019-03-06T20:26:13.978Z,7.90
2019-03-06T20:31:11.706Z,18.90
2019-03-06T20:36:13.724Z,8.07
2019-03-06T20:41:16.405Z,9.83
2019-03-06T20:46:22.280Z,6.53
2019-03-06T20:51:24.216Z,8.83
2019-03-06T20:56:26.750Z,6.63
2019-03-06T21:01:29.672Z,7.47
2019-03-06T21:06:33.771Z,7.97
2019-03-06T21:11:36.392Z,7.27
2019-03-06T21:16:38.549Z,6.30
2019-03-06T21:21:40.483Z,6.77
2019-03-06T21:26:42.378Z,8.00
2019-03-06T21:31:45.134Z,7.53
2019-03-06T21:36:47.126Z,7.83
2019-03-06T21:41:50.091Z,7.40
2019-03-06T21:46:51.966Z,6.30
2019-03-06T21:51:53.895Z,13.57
2019-03-06T21:56:56.892Z,10.23
2019-03-06T22:01:58.817Z,8.67
2019-03-06T22:07:00.792Z,7.73
2019-03-06T22:12:03.057Z,6.77
2019-03-06T22:17:05.236Z,8.23
2019-03-06T22:22:07.709Z,6.10
2019-03-06T22:27:10.488Z,7.40
2019-03-06T22:32:12.420Z,7.17
2019-03-06T22:37:14.421Z,7.77
2019-03-06T22:42:17.526Z,7.13
2019-03-06T22:47:20.040Z,8.47
2019-03-06T22:52:23.178Z,7.07
2019-03-06T22:57:25.292Z,8.97
2019-03-06T23:02:27.628Z,7.93
2019-03-06T23:07:30.342Z,7.67
2019-03-06T23:12:32.928Z,7.27
2019-03-06T23:17:35.420Z,6.73
2019-03-06T23:22:37.688Z,8.47
2019-03-06T23:27:39.925Z,7.63
2019-03-06T23:32:42.772Z,7.87
2019-03-06T23:37:44.885Z,7.93
2019-03-06T23:42:48.042Z,11.27
2019-03-06T23:47:50.781Z,7.87
2019-03-06T23:53:04.221Z,6.93
2019-03-06T23:58:06.585Z,7.80
